Time;durP1;ratioP1;P1;durP2;ratioP2;P2;SDS_P1;SDS_P2;PMS_P1;PMS_P2;Temp;Humidity;BMP_temperature;BMP_pressure;BME280_temperature;BME280_humidity;BME280_pressure;Samples;Min_cycle;Max_cycle;Signal;HPM_P1;HPM_P2
2022/08/09 00:00:12;;;;;;;5.03;3.58;;;;;;;16.67;74.77;102008.34;5057807;28;20048;-85
2022/08/09 00:02:40;;;;;;;5.32;3.97;;;;;;;16.66;74.82;102012.78;5061294;28;20416;-83
2022/08/09 00:05:07;;;;;;;10.38;4.20;;;;;;;16.63;75.04;102011.94;5067906;28;20110;-85
2022/08/09 00:07:34;;;;;;;5.43;3.75;;;;;;;16.61;75.00;102013.69;5068217;28;20143;-86
2022/08/09 00:10:09;;;;;;;7.60;4.10;;;;;;;16.54;75.45;102007.63;5076004;28;20104;-85
2022/08/09 00:12:36;;;;;;;6.85;4.70;;;;;;;16.52;75.51;102009.44;5072876;28;20095;-85
2022/08/09 00:15:05;;;;;;;7.20;4.40;;;;;;;16.49;75.58;102012.09;5091901;28;20040;-84
2022/08/09 00:17:32;;;;;;;10.10;4.90;;;;;;;16.45;75.73;102013.91;5075683;28;20048;-85
2022/08/09 00:19:59;;;;;;;9.25;4.82;;;;;;;16.41;75.94;102012.16;5067178;28;20052;-85
2022/08/09 00:22:26;;;;;;;8.57;5.20;;;;;;;16.38;76.44;102014.88;5080970;28;20050;-84
2022/08/09 00:24:55;;;;;;;10.20;5.40;;;;;;;16.39;76.46;102011.34;5064976;28;20024;-85
2022/08/09 00:27:22;;;;;;;8.75;4.90;;;;;;;16.36;76.57;102006.97;5057673;28;20878;-85
2022/08/09 00:29:49;;;;;;;5.70;4.80;;;;;;;16.34;76.41;102006.09;5064743;28;20047;-84
2022/08/09 00:32:16;;;;;;;7.32;5.68;;;;;;;16.33;76.54;102014.91;5061983;28;20047;-85
2022/08/09 00:34:44;;;;;;;7.80;5.38;;;;;;;16.29;76.91;102012.31;5060763;28;20056;-85
2022/08/09 00:37:10;;;;;;;10.13;5.97;;;;;;;16.28;77.05;102007.94;5071016;28;20667;-85
2022/08/09 00:39:37;;;;;;;7.38;5.78;;;;;;;16.26;77.10;102015.03;5074038;28;20135;-84
2022/08/09 00:42:08;;;;;;;7.68;5.68;;;;;;;16.19;77.47;102016.81;5057844;28;20051;-85
2022/08/09 00:44:35;;;;;;;7.85;5.25;;;;;;;16.15;77.81;102008.06;5058998;28;20044;-85
2022/08/09 00:47:02;;;;;;;13.18;6.38;;;;;;;16.13;78.27;102012.50;5078197;28;20048;-85
2022/08/09 00:49:29;;;;;;;10.10;5.97;;;;;;;16.10;78.35;102011.63;5069534;28;20051;-84
2022/08/09 00:51:56;;;;;;;12.18;5.82;;;;;;;16.06;78.71;102013.47;5075496;28;20504;-86
2022/08/09 00:54:24;;;;;;;7.40;5.20;;;;;;;16.01;78.94;102010.00;5070542;28;20381;-86
2022/08/09 00:56:51;;;;;;;11.77;5.65;;;;;;;15.99;79.36;102006.47;5050348;28;20063;-84
2022/08/09 00:59:18;;;;;;;8.48;4.32;;;;;;;15.97;79.84;102008.25;5079322;28;20374;-84
2022/08/09 01:01:51;;;;;;;7.07;4.90;;;;;;;15.92;79.88;102007.41;5059471;28;20099;-86
2022/08/09 01:05:04;;;;;;;6.90;4.78;;;;;;;15.90;80.57;102004.78;5088473;28;20551;-84
2022/08/09 01:07:46;;;;;;;7.15;5.00;;;;;;;15.86;80.99;102011.00;5077563;28;20710;-85
2022/08/09 01:10:34;;;;;;;8.40;5.43;;;;;;;15.84;81.16;102016.28;5051952;28;20044;-86
2022/08/09 01:13:13;;;;;;;5.43;3.78;;;;;;;15.81;81.16;102023.34;5086516;28;20060;-84
2022/08/09 01:15:45;;;;;;;4.38;3.42;;;;;;;15.79;81.21;102017.19;5070450;28;20054;-86
2022/08/09 01:18:26;;;;;;;6.90;4.07;;;;;;;15.75;82.22;102018.09;5085047;28;20218;-85
2022/08/09 01:21:17;;;;;;;6.85;4.15;;;;;;;15.74;82.48;102017.22;5086401;28;20146;-85
2022/08/09 01:24:00;;;;;;;3.22;2.60;;;;;;;15.68;82.80;102015.53;5071248;28;20029;-85
2022/08/09 01:26:49;;;;;;;8.13;3.20;;;;;;;15.65;83.31;102022.59;5068861;28;20063;-83
2022/08/09 01:29:19;;;;;;;3.17;2.88;;;;;;;15.61;83.08;102024.38;5086370;28;20078;-85
2022/08/09 01:31:48;;;;;;;2.45;2.35;;;;;;;15.59;83.30;102026.16;5087539;28;20048;-86
2022/08/09 01:34:19;;;;;;;4.80;2.88;;;;;;;15.57;83.71;102021.78;5054255;28;20052;-84
2022/08/09 01:36:48;;;;;;;3.55;2.67;;;;;;;15.55;84.06;102019.13;5059843;28;20099;-85
2022/08/09 01:39:17;;;;;;;3.53;2.45;;;;;;;15.53;84.60;102019.16;5080791;28;20047;-85
2022/08/09 01:41:44;;;;;;;4.75;2.42;;;;;;;15.52;84.42;102020.03;5091669;28;20075;-85
2022/08/09 01:44:13;;;;;;;2.60;2.40;;;;;;;15.52;84.59;102024.44;5073981;28;20125;-86
2022/08/09 01:46:43;;;;;;;4.95;3.00;;;;;;;15.54;85.54;102020.03;5086518;28;20063;-85
2022/08/09 01:49:17;;;;;;;2.08;1.77;;;;;;;15.52;85.02;102020.03;5088789;28;20185;-84
2022/08/09 01:51:47;;;;;;;4.85;2.42;;;;;;;15.51;85.21;102023.59;5074047;28;20123;-85
2022/08/09 01:54:16;;;;;;;3.17;2.25;;;;;;;15.52;85.07;102020.03;5090004;28;20527;-82
2022/08/09 01:56:47;;;;;;;4.65;1.90;;;;;;;15.50;85.55;102018.28;5068096;28;20051;-84
2022/08/09 01:59:18;;;;;;;2.85;2.05;;;;;;;15.48;85.41;102015.66;5063075;28;20051;-85
2022/08/09 02:01:49;;;;;;;1.85;1.75;;;;;;;15.47;86.04;102016.56;5087863;28;20419;-85
2022/08/09 02:04:17;;;;;;;6.63;2.38;;;;;;;15.44;85.68;102021.88;5070307;28;20079;-84
2022/08/09 02:09:55;;;;;;;2.78;2.00;;;;;;;15.39;86.58;102013.09;5024525;28;20150;-85
2022/08/09 02:12:25;;;;;;;3.90;1.88;;;;;;;15.35;86.47;102014.03;5087571;28;20032;-86
2022/08/09 02:14:55;;;;;;;4.45;1.85;;;;;;;15.32;87.08;102014.06;5082127;28;20039;-85
2022/08/09 02:17:25;;;;;;;4.93;2.22;;;;;;;15.31;87.82;102012.28;5069889;28;20753;-84
2022/08/09 02:19:52;;;;;;;2.00;1.90;;;;;;;15.31;87.13;102022.84;5088757;28;20086;-86
2022/08/09 02:22:48;;;;;;;4.43;2.00;;;;;;;15.25;88.26;102022.88;5089930;28;20413;-86
2022/08/09 02:25:22;;;;;;;3.00;1.92;;;;;;;15.22;87.90;102022.00;5086646;28;20051;-85
2022/08/09 02:27:59;;;;;;;2.30;2.00;;;;;;;15.20;88.21;102017.63;5086764;28;20219;-86
2022/08/09 02:30:39;;;;;;;2.67;2.22;;;;;;;15.16;88.38;102015.88;5108694;27;20131;-85
2022/08/09 02:33:08;;;;;;;4.55;2.28;;;;;;;15.12;88.39;102017.69;5091178;28;20040;-87
2022/08/09 02:35:36;;;;;;;3.88;2.33;;;;;;;15.08;88.86;102012.44;5082291;28;20040;-85
2022/08/09 02:38:05;;;;;;;2.75;2.10;;;;;;;15.05;90.61;102015.97;5084188;28;20055;-85
2022/08/09 02:40:34;;;;;;;3.05;1.98;;;;;;;15.02;90.03;102019.50;5100027;28;20081;-85
2022/08/09 02:43:03;;;;;;;3.25;2.50;;;;;;;14.99;90.49;102005.44;5087520;28;20032;-84
2022/08/09 02:45:35;;;;;;;4.90;2.20;;;;;;;14.98;90.38;102014.22;5090758;28;20052;-86
2022/08/09 02:48:08;;;;;;;3.35;2.53;;;;;;;14.96;90.19;102006.34;5069419;28;20047;-83
2022/08/09 02:50:43;;;;;;;2.38;2.17;;;;;;;14.95;90.90;102006.34;5084214;28;20047;-86
2022/08/09 02:53:22;;;;;;;4.43;2.45;;;;;;;14.91;90.71;102013.38;5082326;28;20046;-85
2022/08/09 02:55:51;;;;;;;1.90;1.80;;;;;;;14.89;90.97;102009.91;5082632;28;20039;-84
2022/08/09 02:58:22;;;;;;;2.13;2.03;;;;;;;14.85;91.47;102010.81;5066614;28;20067;-86
2022/08/09 03:00:49;;;;;;;2.83;2.53;;;;;;;14.83;92.08;102002.03;5102844;28;20047;-84
2022/08/09 03:03:18;;;;;;;8.02;2.90;;;;;;;14.83;92.77;102012.56;5088594;28;20116;-84
2022/08/09 03:05:46;;;;;;;2.42;2.10;;;;;;;14.83;91.85;102018.69;5068200;28;20073;-85
2022/08/09 03:08:15;;;;;;;4.00;2.50;;;;;;;14.84;92.57;102025.72;5072529;28;20586;-86
2022/08/09 03:10:44;;;;;;;3.05;2.33;;;;;;;14.82;92.19;102016.97;5101909;28;20116;-85
2022/08/09 03:13:10;;;;;;;2.88;2.53;;;;;;;14.84;92.37;102019.59;5086169;28;20044;-84
2022/08/09 03:15:40;;;;;;;3.22;2.95;;;;;;;14.81;92.22;102024.88;5085407;28;20044;-85
2022/08/09 03:18:08;;;;;;;3.10;2.85;;;;;;;14.78;92.69;102025.75;5083664;28;20097;-85
2022/08/09 03:20:42;;;;;;;3.70;2.72;;;;;;;14.76;92.49;102032.81;5073609;28;20059;-85
2022/08/09 03:23:11;;;;;;;3.20;2.53;;;;;;;14.74;93.13;102037.19;5088462;28;20050;-85
2022/08/09 03:25:41;;;;;;;5.32;2.05;;;;;;;14.72;92.91;102039.84;5073032;28;20101;-85
2022/08/09 03:28:08;;;;;;;3.92;2.47;;;;;;;14.68;93.72;102032.84;5090222;27;20080;-85
2022/08/09 03:30:37;;;;;;;2.55;2.13;;;;;;;14.65;93.45;102032.88;5078113;28;20047;-85
2022/08/09 03:33:09;;;;;;;4.18;3.20;;;;;;;14.60;94.20;102037.25;5094192;28;20040;-84
2022/08/09 03:35:36;;;;;;;3.15;2.33;;;;;;;14.58;94.19;102031.09;5073683;28;20055;-85
2022/08/09 03:38:03;;;;;;;3.90;2.45;;;;;;;14.55;94.05;102031.09;5071983;28;20050;-85
2022/08/09 03:40:30;;;;;;;5.38;2.58;;;;;;;14.50;95.16;102024.97;5079653;28;20043;-85
2022/08/09 03:42:57;;;;;;;3.40;2.92;;;;;;;14.51;94.78;102024.97;5089138;28;20450;-85
2022/08/09 03:45:23;;;;;;;3.63;2.90;;;;;;;14.51;94.29;102022.31;5078311;28;20078;-85
2022/08/09 03:47:50;;;;;;;4.07;2.53;;;;;;;14.49;94.92;102020.59;5105620;27;20028;-86
2022/08/09 03:50:18;;;;;;;6.05;2.95;;;;;;;14.46;94.91;102029.38;5069837;28;20043;-85
2022/08/09 03:52:45;;;;;;;3.63;2.42;;;;;;;14.42;95.16;102032.00;5094142;28;20123;-84
2022/08/09 03:55:13;;;;;;;5.00;3.30;;;;;;;14.42;95.83;102032.00;5088877;28;20100;-85
2022/08/09 03:57:41;;;;;;;4.75;2.85;;;;;;;14.44;95.03;102023.22;5106271;27;20043;-84
2022/08/09 04:00:09;;;;;;;3.33;2.70;;;;;;;14.46;94.67;102033.78;5077460;28;20123;-85
2022/08/09 04:02:36;;;;;;;3.15;2.95;;;;;;;14.44;95.07;102027.63;5076182;28;20138;-84
2022/08/09 04:05:05;;;;;;;4.72;3.60;;;;;;;14.42;95.26;102030.25;5070439;28;20081;-84
2022/08/09 04:07:31;;;;;;;2.70;2.50;;;;;;;14.40;95.03;102026.75;5071221;28;20059;-85
2022/08/09 04:09:58;;;;;;;4.63;3.33;;;;;;;14.38;95.14;102039.94;5071593;28;20138;-84
2022/08/09 04:12:42;;;;;;;3.63;2.78;;;;;;;14.37;95.46;102040.81;5086599;28;20039;-84
2022/08/09 04:15:13;;;;;;;3.72;3.05;;;;;;;14.35;95.25;102029.41;5088250;28;20046;-85
2022/08/09 04:17:45;;;;;;;2.80;1.98;;;;;;;14.33;95.47;102033.78;5096039;28;20104;-85
2022/08/09 04:20:14;;;;;;;3.15;2.40;;;;;;;14.33;95.48;102039.06;5078819;28;20048;-83
2022/08/09 04:22:46;;;;;;;3.55;2.08;;;;;;;14.34;96.20;102039.94;5081503;28;20046;-84
2022/08/09 04:25:13;;;;;;;2.65;2.55;;;;;;;14.37;95.81;102038.16;5087471;28;20506;-84
2022/08/09 04:27:40;;;;;;;3.67;2.50;;;;;;;14.39;95.96;102044.31;5072240;28;20073;-84
2022/08/09 04:30:14;;;;;;;3.08;2.70;;;;;;;14.39;95.62;102044.31;5073750;28;20347;-84
2022/08/09 04:32:42;;;;;;;2.85;2.65;;;;;;;14.40;95.63;102050.44;5094729;28;20100;-82
2022/08/09 04:35:11;;;;;;;3.67;2.53;;;;;;;14.39;95.61;102052.22;5091605;28;20069;-83
2022/08/09 04:37:38;;;;;;;3.38;3.08;;;;;;;14.39;96.00;102053.97;5088664;28;20085;-84
2022/08/09 04:40:08;;;;;;;3.58;3.22;;;;;;;14.42;95.73;102056.59;5074066;27;20055;-83
2022/08/09 04:42:35;;;;;;;3.78;2.80;;;;;;;14.41;95.67;102067.16;5072933;28;20053;-84
2022/08/09 04:45:04;;;;;;;3.00;2.80;;;;;;;14.44;95.55;102068.00;5085335;28;20075;-83
2022/08/09 04:47:31;;;;;;;3.25;2.85;;;;;;;14.45;95.52;102064.50;5075200;28;20931;-84
2022/08/09 04:50:00;;;;;;;3.17;2.80;;;;;;;14.50;95.57;102069.78;5088439;28;20044;-84
2022/08/09 04:52:28;;;;;;;3.20;2.90;;;;;;;14.51;95.12;102069.75;5087314;28;20044;-86
2022/08/09 04:54:58;;;;;;;4.38;3.95;;;;;;;14.54;94.85;102075.00;5088104;28;20044;-85
2022/08/09 04:57:25;;;;;;;5.55;2.97;;;;;;;14.55;94.94;102070.63;5093353;27;20079;-84
2022/08/09 04:59:54;;;;;;;4.18;3.38;;;;;;;14.62;94.65;102079.41;5086713;28;20407;-84
2022/08/09 05:02:24;;;;;;;4.93;3.55;;;;;;;14.67;94.36;102070.63;5089980;27;20134;-85
2022/08/09 05:04:51;;;;;;;4.00;3.50;;;;;;;14.69;93.92;102074.13;5064849;28;20104;-84
2022/08/09 05:07:18;;;;;;;3.58;2.42;;;;;;;14.73;94.02;102080.25;5075990;28;20051;-84
2022/08/09 05:09:45;;;;;;;3.33;3.03;;;;;;;14.76;94.28;102076.72;5088396;28;20100;-84
2022/08/09 05:12:12;;;;;;;3.88;2.65;;;;;;;14.78;93.92;102081.09;5091144;28;20054;-86
2022/08/09 05:14:38;;;;;;;4.10;2.75;;;;;;;14.79;93.46;102079.38;5077860;28;20082;-85
2022/08/09 05:17:05;;;;;;;3.83;2.97;;;;;;;14.82;93.16;102080.25;5107749;27;20100;-85
2022/08/09 05:19:32;;;;;;;6.63;3.17;;;;;;;14.85;92.72;102082.00;5076080;28;20044;-85
2022/08/09 05:21:58;;;;;;;4.40;3.20;;;;;;;14.91;92.38;102078.44;5092604;28;20054;-84
2022/08/09 05:24:25;;;;;;;3.97;3.13;;;;;;;14.97;91.71;102074.00;5074810;28;20110;-86
2022/08/09 05:26:53;;;;;;;3.63;3.22;;;;;;;15.01;91.40;102081.03;5071855;28;20487;-83
2022/08/09 05:29:19;;;;;;;3.55;3.22;;;;;;;15.03;91.69;102079.28;5067417;27;20595;-85
2022/08/09 05:31:47;;;;;;;3.25;3.00;;;;;;;15.08;91.17;102075.72;5086563;28;20460;-85
2022/08/09 05:34:15;;;;;;;4.32;3.10;;;;;;;15.13;91.00;102074.81;5089956;28;20127;-85
2022/08/09 05:36:44;;;;;;;4.78;3.50;;;;;;;15.18;90.17;102073.03;5067494;28;20040;-85
2022/08/09 05:39:10;;;;;;;6.07;2.92;;;;;;;15.26;88.63;102077.41;5073110;28;20048;-83
2022/08/09 05:41:37;;;;;;;2.63;2.42;;;;;;;15.30;87.84;102080.00;5075939;28;20079;-84
2022/08/09 05:44:07;;;;;;;5.72;2.35;;;;;;;15.36;87.22;102089.66;5075635;28;20063;-85
2022/08/09 05:46:33;;;;;;;3.65;2.58;;;;;;;15.42;86.48;102083.44;5091510;28;20043;-85
2022/08/09 05:49:00;;;;;;;3.53;2.72;;;;;;;15.47;84.91;102090.44;5091293;28;20051;-84
2022/08/09 05:51:27;;;;;;;4.32;3.10;;;;;;;15.53;84.48;102090.41;5091109;28;20070;-85
2022/08/09 05:53:57;;;;;;;4.90;2.63;;;;;;;15.59;83.87;102085.97;5092183;28;20036;-85
2022/08/09 05:56:32;;;;;;;4.03;2.67;;;;;;;15.63;83.27;102085.97;5088331;28;20044;-83
2022/08/09 05:58:58;;;;;;;3.35;2.05;;;;;;;15.68;83.11;102085.91;5085783;28;20323;-85
2022/08/09 06:01:26;;;;;;;4.38;2.90;;;;;;;15.73;82.51;102093.81;5074817;28;20071;-84
2022/08/09 06:03:58;;;;;;;3.17;2.47;;;;;;;15.80;82.01;102090.22;5104974;27;20040;-85
2022/08/09 06:06:27;;;;;;;6.10;3.75;;;;;;;15.89;80.97;102098.09;5073333;28;20043;-84
2022/08/09 06:08:54;;;;;;;4.78;3.35;;;;;;;15.98;80.52;102105.06;5105399;27;20058;-85
2022/08/09 06:11:24;;;;;;;3.08;2.67;;;;;;;16.06;80.34;102105.91;5072667;28;20052;-85
2022/08/09 06:13:56;;;;;;;3.25;2.33;;;;;;;16.14;79.75;102096.13;5099707;28;20070;-87
2022/08/09 06:16:23;;;;;;;5.53;2.40;;;;;;;16.20;79.60;102105.75;5072668;28;20049;-85
2022/08/09 06:18:50;;;;;;;2.00;1.90;;;;;;;16.26;78.67;102100.44;5108235;27;20066;-86
2022/08/09 06:21:19;;;;;;;4.60;2.42;;;;;;;16.33;78.45;102099.47;5092489;28;20047;-85
2022/08/09 06:23:51;;;;;;;4.32;2.20;;;;;;;16.42;77.59;102098.50;5107486;27;20032;-86
2022/08/09 06:26:21;;;;;;;3.25;2.45;;;;;;;16.54;77.37;102102.78;5091348;28;20044;-85
2022/08/09 06:28:52;;;;;;;4.47;2.63;;;;;;;16.62;76.00;102106.25;5108025;27;20035;-85
2022/08/09 06:31:18;;;;;;;4.90;1.83;;;;;;;16.70;75.57;102101.72;5115806;27;20048;-84
2022/08/09 06:33:45;;;;;;;7.95;2.13;;;;;;;16.81;74.90;102106.03;5097726;28;20066;-85
2022/08/09 06:36:12;;;;;;;5.43;2.53;;;;;;;16.88;74.18;102107.69;5074215;28;20445;-85
2022/08/09 06:38:42;;;;;;;4.50;2.58;;;;;;;16.96;74.08;102108.53;5072490;28;20059;-86
2022/08/09 06:41:09;;;;;;;2.03;1.90;;;;;;;17.09;72.99;102114.53;5052527;28;20138;-84
2022/08/09 06:43:36;;;;;;;4.53;1.85;;;;;;;17.17;72.15;102120.59;5062713;28;20058;-86
2022/08/09 06:46:03;;;;;;;7.15;2.15;;;;;;;17.27;71.72;102117.81;5058814;28;20049;-85
2022/08/09 06:48:30;;;;;;;4.90;2.28;;;;;;;17.31;70.92;102123.06;5070317;28;20052;-84
2022/08/09 06:50:59;;;;;;;11.27;2.70;;;;;;;17.38;70.73;102112.38;5057644;28;20180;-86
2022/08/09 06:53:26;;;;;;;4.80;2.35;;;;;;;17.44;70.41;102118.47;5066123;28;20036;-85
2022/08/09 06:55:53;;;;;;;7.15;2.80;;;;;;;17.56;70.20;102130.66;5056447;28;20048;-85
2022/08/09 06:58:27;;;;;;;3.55;2.40;;;;;;;17.78;68.96;102125.91;5074885;28;20055;-85
2022/08/09 07:00:56;;;;;;;6.68;2.30;;;;;;;17.91;68.08;102121.28;5068167;28;20048;-86
2022/08/09 07:03:24;;;;;;;2.92;2.15;;;;;;;18.07;66.82;102118.41;5064034;28;21438;-88
2022/08/09 07:05:51;;;;;;;4.20;1.25;;;;;;;18.30;66.19;102120.66;5077927;28;20396;-85
2022/08/09 07:08:23;;;;;;;6.80;5.53;;;;;;;18.68;64.49;102121.72;5093510;28;20217;-86
2022/08/09 07:10:51;;;;;;;3.33;1.70;;;;;;;19.10;62.41;102118.25;5078328;28;20040;-85
2022/08/09 07:13:19;;;;;;;4.82;1.85;;;;;;;19.52;61.26;102115.56;5064982;28;20032;-87
2022/08/09 07:15:47;;;;;;;4.65;2.20;;;;;;;19.92;58.92;102112.00;5075378;28;20070;-86
2022/08/09 07:18:14;;;;;;;4.00;1.35;;;;;;;20.33;57.63;102125.13;5067374;28;20044;-87
2022/08/09 07:20:41;;;;;;;2.72;1.40;;;;;;;20.73;56.71;102124.06;5065383;28;20048;-85
2022/08/09 07:23:08;;;;;;;1.58;1.20;;;;;;;21.06;53.88;102121.34;5092776;28;20095;-85
2022/08/09 07:25:38;;;;;;;0.93;0.77;;;;;;;21.40;52.66;102116.78;5062160;28;20046;-86
2022/08/09 07:28:13;;;;;;;2.60;0.68;;;;;;;21.79;50.48;102120.00;5078035;28;20078;-85
2022/08/09 07:30:41;;;;;;;3.00;0.90;;;;;;;22.10;49.55;102126.13;5063629;28;20187;-86
2022/08/09 07:33:07;;;;;;;2.42;1.35;;;;;;;22.40;49.58;102124.19;5079538;28;20040;-84
2022/08/09 07:35:34;;;;;;;1.23;1.08;;;;;;;22.85;48.98;102124.38;5058670;28;20048;-84
2022/08/09 07:38:09;;;;;;;1.95;0.68;;;;;;;23.31;47.45;102128.00;5070237;28;20158;-86
2022/08/09 07:40:42;;;;;;;0.70;0.70;;;;;;;23.65;45.96;102118.63;5080659;28;20143;-86
2022/08/09 07:43:11;;;;;;;3.08;0.93;;;;;;;23.87;45.24;102117.72;5084681;28;20127;-86
2022/08/09 07:45:38;;;;;;;3.38;0.68;;;;;;;24.19;44.78;102116.41;5088573;28;20040;-85
2022/08/09 07:48:13;;;;;;;2.67;0.80;;;;;;;24.57;44.13;102112.97;5100509;27;20039;-86
2022/08/09 07:50:42;;;;;;;4.67;0.70;;;;;;;24.99;42.65;102119.16;5084380;28;20058;-86
2022/08/09 07:53:09;;;;;;;1.23;1.02;;;;;;;25.25;42.08;102115.22;5087940;28;20069;-84
2022/08/09 07:55:38;;;;;;;5.07;0.75;;;;;;;25.57;41.45;102116.38;5095025;27;20039;-84
2022/08/09 07:58:06;;;;;;;3.30;1.23;;;;;;;26.03;41.08;102106.97;5088888;27;20043;-85
2022/08/09 08:00:33;;;;;;;2.85;1.00;;;;;;;26.44;39.93;102117.41;5076256;28;20104;-83
2022/08/09 08:03:02;;;;;;;4.13;1.38;;;;;;;26.85;38.62;102117.00;5076411;28;20051;-85
2022/08/09 08:05:29;;;;;;;0.85;0.82;;;;;;;26.73;37.79;102115.00;5076248;28;20040;-87
2022/08/09 08:07:56;;;;;;;0.93;0.93;;;;;;;26.63;38.07;102111.91;5097827;28;20052;-87
2022/08/09 08:10:23;;;;;;;2.33;1.00;;;;;;;26.82;38.21;102103.75;5091069;28;20059;-85
2022/08/09 08:12:49;;;;;;;8.45;1.27;;;;;;;27.34;37.97;102107.13;5076393;28;20134;-85
2022/08/09 08:15:20;;;;;;;2.08;0.73;;;;;;;27.60;36.35;102097.63;5074370;28;20040;-86
2022/08/09 08:17:50;;;;;;;6.80;1.38;;;;;;;27.64;36.14;102111.75;5097685;28;20048;-86
2022/08/09 08:20:18;;;;;;;6.72;1.50;;;;;;;27.88;36.12;102109.44;5093633;28;20047;-85
2022/08/09 08:22:45;;;;;;;1.73;1.02;;;;;;;28.18;34.98;102112.13;5074887;28;20047;-86
2022/08/09 08:25:15;;;;;;;4.68;0.90;;;;;;;28.39;34.54;102109.97;5088484;27;20043;-85
2022/08/09 08:27:44;;;;;;;3.40;0.73;;;;;;;28.39;34.87;102109.09;5084346;28;20048;-86
2022/08/09 08:30:13;;;;;;;5.53;1.45;;;;;;;28.65;34.72;102110.19;5087045;28;21176;-86
2022/08/09 08:32:41;;;;;;;2.53;1.95;;;;;;;29.01;33.16;102121.44;5096210;28;20040;-86
2022/08/09 08:35:11;;;;;;;1.42;1.00;;;;;;;29.01;33.53;102124.16;5092946;27;20056;-85
2022/08/09 08:37:38;;;;;;;1.58;1.30;;;;;;;29.40;33.07;102122.56;5068940;28;20078;-86
2022/08/09 08:40:09;;;;;;;2.50;1.27;;;;;;;29.63;31.89;102126.41;5077999;28;20070;-86
2022/08/09 08:42:36;;;;;;;3.65;1.50;;;;;;;29.76;31.60;102118.34;5058276;28;20082;-86
2022/08/09 08:45:09;;;;;;;10.02;1.52;;;;;;;29.89;31.83;102121.13;5088744;28;20111;-85
2022/08/09 08:47:41;;;;;;;2.70;0.95;;;;;;;29.96;31.82;102121.56;5072767;28;20044;-85
2022/08/09 08:50:08;;;;;;;6.82;1.35;;;;;;;30.45;30.94;102120.84;5058151;28;20048;-87
2022/08/09 08:52:35;;;;;;;1.30;1.20;;;;;;;30.50;30.55;102113.31;5066998;28;20057;-85
2022/08/09 08:55:02;;;;;;;2.15;1.20;;;;;;;30.73;30.06;102120.75;5051311;28;20050;-85
2022/08/09 08:57:34;;;;;;;2.15;0.90;;;;;;;30.97;29.97;102115.44;5049660;28;21104;-86
2022/08/09 09:00:01;;;;;;;2.42;0.93;;;;;;;31.16;29.08;102115.84;5068671;28;20052;-85
2022/08/09 09:02:30;;;;;;;4.35;1.42;;;;;;;31.38;29.05;102116.06;5057819;28;20141;-85
2022/08/09 09:05:01;;;;;;;0.95;0.95;;;;;;;31.44;28.33;102113.78;5054751;28;20243;-86
2022/08/09 09:07:29;;;;;;;0.75;0.60;;;;;;;31.37;28.72;102123.34;5037348;28;20062;-86
2022/08/09 09:09:57;;;;;;;1.52;0.90;;;;;;;31.86;27.57;102120.63;5068053;28;20047;-87
2022/08/09 09:12:26;;;;;;;2.67;1.60;;;;;;;32.32;26.94;102114.38;5063438;28;20036;-86
2022/08/09 09:14:54;;;;;;;3.50;1.20;;;;;;;32.60;27.20;102121.16;5065694;28;20113;-86
2022/08/09 09:17:21;;;;;;;1.92;1.10;;;;;;;32.85;26.14;102119.22;5068785;28;20044;-86
2022/08/09 09:19:48;;;;;;;2.28;1.17;;;;;;;33.00;25.95;102125.25;5069775;28;20040;-88
2022/08/09 09:22:18;;;;;;;2.33;1.42;;;;;;;33.62;25.91;102117.44;5051281;28;20059;-86
2022/08/09 09:24:54;;;;;;;1.25;0.98;;;;;;;34.02;25.03;102129.53;5050503;28;20051;-87
2022/08/09 09:27:25;;;;;;;2.00;0.98;;;;;;;34.12;24.54;102131.31;5051271;28;20163;-86
2022/08/09 09:29:53;;;;;;;6.25;0.63;;;;;;;34.15;24.61;102132.03;5069193;28;20048;-85
2022/08/09 09:32:28;;;;;;;1.08;0.80;;;;;;;34.61;24.50;102125.31;5058620;28;20518;-86
2022/08/09 09:35:15;;;;;;;1.65;1.02;;;;;;;35.09;23.22;102115.63;5069313;28;20325;-86
2022/08/09 09:37:42;;;;;;;1.08;1.00;;;;;;;34.66;23.90;102122.19;5069547;28;20145;-86
2022/08/09 09:40:10;;;;;;;2.08;0.65;;;;;;;34.00;24.82;102121.47;5064148;28;20056;-86
2022/08/09 09:42:37;;;;;;;0.98;0.82;;;;;;;34.49;24.64;102123.69;5082926;28;20048;-85
2022/08/09 09:45:07;;;;;;;3.45;1.17;;;;;;;35.09;23.27;102130.06;5068107;28;20047;-85
2022/08/09 09:47:34;;;;;;;3.30;0.80;;;;;;;34.74;24.17;102127.78;5083834;28;20044;-86
2022/08/09 09:50:02;;;;;;;1.65;0.90;;;;;;;34.45;24.34;102123.94;5081669;28;20138;-87
2022/08/09 09:52:28;;;;;;;2.03;0.85;;;;;;;34.29;24.27;102127.13;5063343;28;20802;-86
2022/08/09 09:55:08;;;;;;;2.13;1.00;;;;;;;34.58;23.86;102126.44;5075684;28;20047;-86
2022/08/09 09:57:35;;;;;;;2.83;1.02;;;;;;;35.11;23.72;102127.22;5078661;28;20483;-86
2022/08/09 10:00:02;;;;;;;1.02;1.00;;;;;;;35.96;23.07;102127.59;5078643;28;20051;-86
2022/08/09 10:02:28;;;;;;;3.97;1.33;;;;;;;36.68;22.41;102124.41;5066489;28;20040;-87
2022/08/09 10:05:10;;;;;;;2.40;1.13;;;;;;;36.25;21.98;102116.63;5063786;28;20101;-87
2022/08/09 10:07:37;;;;;;;1.55;1.30;;;;;;;36.74;22.24;102112.88;5065696;28;20055;-88
2022/08/09 10:10:05;;;;;;;0.68;0.68;;;;;;;36.63;22.29;102110.34;5062920;28;20552;-86
2022/08/09 10:12:35;;;;;;;1.40;0.90;;;;;;;35.43;22.71;102112.53;5058373;28;20484;-88
2022/08/09 10:15:16;;;;;;;2.50;0.80;;;;;;;35.43;22.62;102109.81;5075981;28;20524;-87
2022/08/09 10:17:47;;;;;;;1.30;0.82;;;;;;;36.06;22.64;102108.50;5063383;28;20197;-85
2022/08/09 10:20:19;;;;;;;1.25;1.05;;;;;;;35.96;22.06;102103.06;5060627;28;20471;-86
2022/08/09 10:22:49;;;;;;;2.28;1.08;;;;;;;36.32;22.08;102110.59;5078844;28;20050;-86
2022/08/09 10:25:18;;;;;;;2.65;1.35;;;;;;;36.26;21.72;102103.88;5075909;28;20044;-86
2022/08/09 10:27:47;;;;;;;1.75;1.10;;;;;;;35.06;22.77;102110.47;5077728;28;20098;-85
2022/08/09 10:30:14;;;;;;;3.53;1.00;;;;;;;33.94;24.08;102103.88;5067389;28;20056;-87
2022/08/09 10:32:41;;;;;;;1.63;0.80;;;;;;;34.23;23.86;102105.91;5080380;28;20048;-86
2022/08/09 10:35:10;;;;;;;1.30;0.82;;;;;;;35.06;23.20;102099.56;5078038;28;20067;-89
2022/08/09 10:37:37;;;;;;;1.67;1.15;;;;;;;36.16;22.12;102097.59;5085044;28;20094;-85
2022/08/09 10:40:07;;;;;;;1.38;1.05;;;;;;;36.98;21.04;102085.06;5066728;28;20143;-87
2022/08/09 10:42:35;;;;;;;1.45;1.17;;;;;;;37.77;20.63;102087.16;5051699;28;20081;-88
2022/08/09 10:45:06;;;;;;;1.90;1.38;;;;;;;38.30;19.98;102094.41;5073140;28;20055;-87
2022/08/09 10:48:03;;;;;;;2.38;1.70;;;;;;;38.29;19.49;102100.91;5089039;28;20389;-88
2022/08/09 10:51:08;;;;;;;1.15;0.90;;;;;;;38.28;19.25;102104.66;5070943;28;20051;-88
2022/08/09 10:54:09;;;;;;;1.10;1.10;;;;;;;37.86;19.77;102102.63;5100756;28;20139;-87
2022/08/09 10:56:42;;;;;;;1.40;1.30;;;;;;;38.63;19.23;102100.06;5087695;28;20626;-85
2022/08/09 10:59:27;;;;;;;1.30;1.30;;;;;;;38.57;19.17;102095.22;5075968;28;20883;-86
2022/08/09 11:01:56;;;;;;;1.70;1.58;;;;;;;38.97;19.48;102085.47;5087166;28;20079;-88
2022/08/09 11:04:26;;;;;;;1.40;1.33;;;;;;;39.63;18.61;102084.72;5100855;28;20491;-87
2022/08/09 11:06:59;;;;;;;2.65;1.17;;;;;;;39.14;18.51;102085.47;5084036;28;20085;-86
2022/08/09 11:09:38;;;;;;;2.38;1.30;;;;;;;37.17;20.06;102092.25;5085226;28;20134;-87
2022/08/09 11:12:23;;;;;;;1.17;0.95;;;;;;;35.26;22.20;102100.44;5098702;28;20043;-86
2022/08/09 11:15:01;;;;;;;0.80;0.80;;;;;;;34.47;23.03;102093.88;5089965;28;20049;-87
2022/08/09 11:17:31;;;;;;;2.70;1.23;;;;;;;36.00;21.28;102092.75;5070787;28;20049;-87
2022/08/09 11:20:03;;;;;;;1.30;1.20;;;;;;;37.17;20.51;102094.09;5085171;28;20440;-88
2022/08/09 11:22:42;;;;;;;1.30;1.10;;;;;;;38.68;19.18;102085.84;5104263;28;20044;-87
2022/08/09 11:25:14;;;;;;;1.92;1.25;;;;;;;40.02;18.00;102094.97;5106326;28;20031;-87
2022/08/09 11:27:44;;;;;;;1.45;1.33;;;;;;;40.58;17.51;102092.25;5067251;28;20075;-87
2022/08/09 11:30:14;;;;;;;3.58;1.13;;;;;;;41.36;17.30;102096.94;5090773;28;20044;-86
2022/08/09 11:32:50;;;;;;;1.08;0.82;;;;;;;41.73;16.39;102085.13;5089024;28;20040;-86
2022/08/09 11:35:29;;;;;;;2.15;1.42;;;;;;;42.18;16.83;102085.22;5091904;28;20420;-86
2022/08/09 11:38:25;;;;;;;2.75;1.20;;;;;;;42.12;15.84;102091.47;5066699;28;20082;-85
2022/08/09 11:40:53;;;;;;;3.97;1.30;;;;;;;42.14;16.75;102094.91;5091548;28;20048;-87